sensor_id;sensor_type;location;lat;lon;timestamp;P1;durP1;ratioP1;P2;durP2;ratioP2
49858;SDS011;35756;52.346;13.622;2023-11-21T00:01:36;3.45;;;1.40;;
49858;SDS011;35756;52.346;13.622;2023-11-21T00:04:02;2.47;;;1.38;;
49858;SDS011;35756;52.346;13.622;2023-11-21T00:06:27;2.40;;;1.58;;
49858;SDS011;35756;52.346;13.622;2023-11-21T00:08:52;7.80;;;1.63;;
49858;SDS011;35756;52.346;13.622;2023-11-21T00:11:18;2.72;;;1.60;;
49858;SDS011;35756;52.346;13.622;2023-11-21T00:13:43;2.20;;;1.55;;
49858;SDS011;35756;52.346;13.622;2023-11-21T00:16:08;4.68;;;1.63;;
49858;SDS011;35756;52.346;13.622;2023-11-21T00:18:34;2.97;;;1.50;;
49858;SDS011;35756;52.346;13.622;2023-11-21T00:20:59;4.07;;;1.55;;
49858;SDS011;35756;52.346;13.622;2023-11-21T00:23:24;3.35;;;1.73;;
49858;SDS011;35756;52.346;13.622;2023-11-21T00:25:50;3.55;;;1.90;;
49858;SDS011;35756;52.346;13.622;2023-11-21T00:28:15;3.53;;;2.00;;
49858;SDS011;35756;52.346;13.622;2023-11-21T00:30:40;5.57;;;2.13;;
49858;SDS011;35756;52.346;13.622;2023-11-21T00:33:06;3.63;;;2.00;;
49858;SDS011;35756;52.346;13.622;2023-11-21T00:35:32;3.38;;;2.00;;
49858;SDS011;35756;52.346;13.622;2023-11-21T00:37:57;5.65;;;3.22;;
49858;SDS011;35756;52.346;13.622;2023-11-21T00:40:23;6.28;;;3.72;;
49858;SDS011;35756;52.346;13.622;2023-11-21T00:42:49;6.47;;;3.25;;
49858;SDS011;35756;52.346;13.622;2023-11-21T00:45:15;7.45;;;3.42;;
49858;SDS011;35756;52.346;13.622;2023-11-21T00:47:40;6.13;;;3.17;;
49858;SDS011;35756;52.346;13.622;2023-11-21T00:50:05;6.43;;;3.25;;
49858;SDS011;35756;52.346;13.622;2023-11-21T00:52:31;5.47;;;3.20;;
49858;SDS011;35756;52.346;13.622;2023-11-21T00:54:57;7.90;;;3.85;;
49858;SDS011;35756;52.346;13.622;2023-11-21T00:57:24;8.23;;;3.38;;
49858;SDS011;35756;52.346;13.622;2023-11-21T00:59:49;7.13;;;3.40;;
49858;SDS011;35756;52.346;13.622;2023-11-21T01:02:14;6.93;;;3.63;;
49858;SDS011;35756;52.346;13.622;2023-11-21T01:04:40;8.15;;;3.45;;
49858;SDS011;35756;52.346;13.622;2023-11-21T01:07:05;6.35;;;3.42;;
49858;SDS011;35756;52.346;13.622;2023-11-21T01:09:31;7.18;;;3.25;;
49858;SDS011;35756;52.346;13.622;2023-11-21T01:11:56;7.07;;;3.25;;
49858;SDS011;35756;52.346;13.622;2023-11-21T01:14:22;7.72;;;3.88;;
49858;SDS011;35756;52.346;13.622;2023-11-21T01:16:47;7.75;;;3.58;;
49858;SDS011;35756;52.346;13.622;2023-11-21T01:19:13;9.85;;;3.90;;
49858;SDS011;35756;52.346;13.622;2023-11-21T01:21:39;9.13;;;4.30;;
49858;SDS011;35756;52.346;13.622;2023-11-21T01:24:04;11.68;;;4.70;;
49858;SDS011;35756;52.346;13.622;2023-11-21T01:26:32;9.73;;;4.60;;
49858;SDS011;35756;52.346;13.622;2023-11-21T01:28:57;9.85;;;5.03;;
49858;SDS011;35756;52.346;13.622;2023-11-21T01:31:22;12.02;;;6.03;;
49858;SDS011;35756;52.346;13.622;2023-11-21T01:33:48;13.38;;;5.25;;
49858;SDS011;35756;52.346;13.622;2023-11-21T01:36:13;13.38;;;6.20;;
49858;SDS011;35756;52.346;13.622;2023-11-21T01:38:39;16.23;;;6.13;;
49858;SDS011;35756;52.346;13.622;2023-11-21T01:41:04;13.07;;;6.18;;
49858;SDS011;35756;52.346;13.622;2023-11-21T01:43:31;18.67;;;6.47;;
49858;SDS011;35756;52.346;13.622;2023-11-21T01:45:57;16.00;;;6.45;;
49858;SDS011;35756;52.346;13.622;2023-11-21T01:48:25;16.30;;;7.68;;
49858;SDS011;35756;52.346;13.622;2023-11-21T01:50:52;15.93;;;7.40;;
49858;SDS011;35756;52.346;13.622;2023-11-21T01:53:18;15.15;;;6.80;;
49858;SDS011;35756;52.346;13.622;2023-11-21T01:55:43;21.08;;;7.43;;
49858;SDS011;35756;52.346;13.622;2023-11-21T01:58:10;17.35;;;7.53;;
49858;SDS011;35756;52.346;13.622;2023-11-21T02:00:36;16.95;;;7.30;;
49858;SDS011;35756;52.346;13.622;2023-11-21T02:03:03;18.40;;;8.52;;
49858;SDS011;35756;52.346;13.622;2023-11-21T02:05:29;18.38;;;7.88;;
49858;SDS011;35756;52.346;13.622;2023-11-21T02:07:54;19.38;;;8.75;;
49858;SDS011;35756;52.346;13.622;2023-11-21T02:10:19;16.48;;;7.78;;
49858;SDS011;35756;52.346;13.622;2023-11-21T02:12:51;23.33;;;8.70;;
49858;SDS011;35756;52.346;13.622;2023-11-21T02:15:16;17.50;;;8.25;;
49858;SDS011;35756;52.346;13.622;2023-11-21T02:17:45;20.92;;;8.80;;
49858;SDS011;35756;52.346;13.622;2023-11-21T02:20:12;21.20;;;8.55;;
49858;SDS011;35756;52.346;13.622;2023-11-21T02:22:40;15.52;;;7.45;;
49858;SDS011;35756;52.346;13.622;2023-11-21T02:25:07;22.52;;;7.97;;
49858;SDS011;35756;52.346;13.622;2023-11-21T02:27:32;19.73;;;7.82;;
49858;SDS011;35756;52.346;13.622;2023-11-21T02:29:58;20.13;;;8.32;;
49858;SDS011;35756;52.346;13.622;2023-11-21T02:32:24;15.82;;;7.78;;
49858;SDS011;35756;52.346;13.622;2023-11-21T02:34:51;16.55;;;7.55;;
49858;SDS011;35756;52.346;13.622;2023-11-21T02:37:16;17.38;;;6.28;;
49858;SDS011;35756;52.346;13.622;2023-11-21T02:39:41;16.38;;;7.15;;
49858;SDS011;35756;52.346;13.622;2023-11-21T02:42:06;15.70;;;7.35;;
49858;SDS011;35756;52.346;13.622;2023-11-21T02:44:32;14.35;;;6.93;;
49858;SDS011;35756;52.346;13.622;2023-11-21T02:46:57;14.93;;;7.13;;
49858;SDS011;35756;52.346;13.622;2023-11-21T02:49:22;13.35;;;7.03;;
49858;SDS011;35756;52.346;13.622;2023-11-21T02:51:48;11.32;;;5.63;;
49858;SDS011;35756;52.346;13.622;2023-11-21T02:54:13;15.30;;;6.65;;
49858;SDS011;35756;52.346;13.622;2023-11-21T02:56:38;15.77;;;6.60;;
49858;SDS011;35756;52.346;13.622;2023-11-21T02:59:05;18.30;;;6.72;;
49858;SDS011;35756;52.346;13.622;2023-11-21T03:01:30;14.05;;;6.13;;
49858;SDS011;35756;52.346;13.622;2023-11-21T03:03:55;12.48;;;5.65;;
49858;SDS011;35756;52.346;13.622;2023-11-21T03:06:21;14.23;;;6.50;;
49858;SDS011;35756;52.346;13.622;2023-11-21T03:08:47;13.27;;;5.97;;
49858;SDS011;35756;52.346;13.622;2023-11-21T03:11:13;12.20;;;5.78;;
49858;SDS011;35756;52.346;13.622;2023-11-21T03:13:41;14.05;;;5.63;;
49858;SDS011;35756;52.346;13.622;2023-11-21T03:16:10;13.70;;;5.80;;
49858;SDS011;35756;52.346;13.622;2023-11-21T03:18:36;16.23;;;6.68;;
49858;SDS011;35756;52.346;13.622;2023-11-21T03:21:02;13.45;;;6.35;;
49858;SDS011;35756;52.346;13.622;2023-11-21T03:23:27;14.88;;;5.80;;
49858;SDS011;35756;52.346;13.622;2023-11-21T03:25:53;21.08;;;6.20;;
49858;SDS011;35756;52.346;13.622;2023-11-21T03:28:18;14.20;;;6.05;;
49858;SDS011;35756;52.346;13.622;2023-11-21T03:30:43;16.13;;;6.25;;
49858;SDS011;35756;52.346;13.622;2023-11-21T03:33:08;12.63;;;5.80;;
49858;SDS011;35756;52.346;13.622;2023-11-21T03:35:34;12.07;;;5.45;;
49858;SDS011;35756;52.346;13.622;2023-11-21T03:37:59;15.80;;;6.03;;
49858;SDS011;35756;52.346;13.622;2023-11-21T03:40:24;12.90;;;5.20;;
49858;SDS011;35756;52.346;13.622;2023-11-21T03:42:49;11.23;;;5.03;;
49858;SDS011;35756;52.346;13.622;2023-11-21T03:45:15;14.10;;;5.47;;
49858;SDS011;35756;52.346;13.622;2023-11-21T03:47:41;8.85;;;4.93;;
49858;SDS011;35756;52.346;13.622;2023-11-21T03:50:07;13.38;;;5.38;;
49858;SDS011;35756;52.346;13.622;2023-11-21T03:52:34;12.60;;;5.88;;
49858;SDS011;35756;52.346;13.622;2023-11-21T03:55:00;13.55;;;5.25;;
49858;SDS011;35756;52.346;13.622;2023-11-21T03:57:25;12.35;;;5.63;;
49858;SDS011;35756;52.346;13.622;2023-11-21T03:59:51;10.82;;;4.93;;
49858;SDS011;35756;52.346;13.622;2023-11-21T04:02:16;9.43;;;4.50;;
49858;SDS011;35756;52.346;13.622;2023-11-21T04:04:42;9.43;;;5.05;;
49858;SDS011;35756;52.346;13.622;2023-11-21T04:07:07;9.70;;;4.45;;
49858;SDS011;35756;52.346;13.622;2023-11-21T04:09:32;10.20;;;4.82;;
49858;SDS011;35756;52.346;13.622;2023-11-21T04:11:58;11.40;;;5.13;;
49858;SDS011;35756;52.346;13.622;2023-11-21T04:14:23;12.73;;;5.53;;
49858;SDS011;35756;52.346;13.622;2023-11-21T04:16:49;9.50;;;5.00;;
49858;SDS011;35756;52.346;13.622;2023-11-21T04:19:14;9.20;;;4.57;;
49858;SDS011;35756;52.346;13.622;2023-11-21T04:21:40;9.35;;;4.97;;
49858;SDS011;35756;52.346;13.622;2023-11-21T04:24:06;11.65;;;4.60;;
49858;SDS011;35756;52.346;13.622;2023-11-21T04:26:31;8.73;;;4.60;;
49858;SDS011;35756;52.346;13.622;2023-11-21T04:28:57;9.82;;;4.50;;
49858;SDS011;35756;52.346;13.622;2023-11-21T04:31:22;10.85;;;4.75;;
49858;SDS011;35756;52.346;13.622;2023-11-21T04:33:48;9.35;;;3.95;;
49858;SDS011;35756;52.346;13.622;2023-11-21T04:36:13;9.70;;;4.25;;
49858;SDS011;35756;52.346;13.622;2023-11-21T04:38:38;8.93;;;4.53;;
49858;SDS011;35756;52.346;13.622;2023-11-21T04:41:04;10.82;;;4.72;;
49858;SDS011;35756;52.346;13.622;2023-11-21T04:43:29;10.25;;;4.45;;
49858;SDS011;35756;52.346;13.622;2023-11-21T04:45:54;9.15;;;3.88;;
49858;SDS011;35756;52.346;13.622;2023-11-21T04:48:20;9.45;;;5.22;;
49858;SDS011;35756;52.346;13.622;2023-11-21T04:50:45;10.20;;;4.65;;
49858;SDS011;35756;52.346;13.622;2023-11-21T04:53:10;5.75;;;3.65;;
49858;SDS011;35756;52.346;13.622;2023-11-21T04:55:38;8.43;;;3.88;;
49858;SDS011;35756;52.346;13.622;2023-11-21T04:58:04;8.07;;;3.95;;
49858;SDS011;35756;52.346;13.622;2023-11-21T05:00:29;7.18;;;3.40;;
49858;SDS011;35756;52.346;13.622;2023-11-21T05:02:55;6.57;;;3.28;;
49858;SDS011;35756;52.346;13.622;2023-11-21T05:05:20;7.32;;;3.20;;
49858;SDS011;35756;52.346;13.622;2023-11-21T05:07:45;7.10;;;3.22;;
49858;SDS011;35756;52.346;13.622;2023-11-21T05:10:10;6.38;;;2.88;;
49858;SDS011;35756;52.346;13.622;2023-11-21T05:12:37;7.05;;;3.35;;
49858;SDS011;35756;52.346;13.622;2023-11-21T05:15:05;6.05;;;2.85;;
49858;SDS011;35756;52.346;13.622;2023-11-21T05:17:38;6.32;;;3.60;;
49858;SDS011;35756;52.346;13.622;2023-11-21T05:20:07;5.50;;;2.80;;
49858;SDS011;35756;52.346;13.622;2023-11-21T05:22:33;6.88;;;3.08;;
49858;SDS011;35756;52.346;13.622;2023-11-21T05:24:59;7.25;;;3.28;;
49858;SDS011;35756;52.346;13.622;2023-11-21T05:27:24;6.57;;;3.08;;
49858;SDS011;35756;52.346;13.622;2023-11-21T05:29:50;6.70;;;2.92;;
49858;SDS011;35756;52.346;13.622;2023-11-21T05:32:15;6.85;;;3.28;;
49858;SDS011;35756;52.346;13.622;2023-11-21T05:34:42;6.60;;;3.05;;
49858;SDS011;35756;52.346;13.622;2023-11-21T05:37:08;7.50;;;2.85;;
49858;SDS011;35756;52.346;13.622;2023-11-21T05:39:33;5.57;;;2.63;;
49858;SDS011;35756;52.346;13.622;2023-11-21T05:41:58;4.68;;;2.53;;
49858;SDS011;35756;52.346;13.622;2023-11-21T05:44:25;8.18;;;3.42;;
49858;SDS011;35756;52.346;13.622;2023-11-21T05:46:50;5.93;;;2.90;;
49858;SDS011;35756;52.346;13.622;2023-11-21T05:49:15;6.75;;;3.20;;
49858;SDS011;35756;52.346;13.622;2023-11-21T05:51:41;4.60;;;2.83;;
49858;SDS011;35756;52.346;13.622;2023-11-21T05:54:06;7.57;;;2.88;;
49858;SDS011;35756;52.346;13.622;2023-11-21T05:56:32;6.70;;;2.83;;
49858;SDS011;35756;52.346;13.622;2023-11-21T05:58:58;6.38;;;3.30;;
49858;SDS011;35756;52.346;13.622;2023-11-21T06:01:23;5.25;;;2.70;;
49858;SDS011;35756;52.346;13.622;2023-11-21T06:03:48;8.18;;;4.07;;
49858;SDS011;35756;52.346;13.622;2023-11-21T06:06:14;5.53;;;3.03;;
49858;SDS011;35756;52.346;13.622;2023-11-21T06:08:39;5.78;;;3.17;;
49858;SDS011;35756;52.346;13.622;2023-11-21T06:11:05;5.30;;;3.00;;
49858;SDS011;35756;52.346;13.622;2023-11-21T06:13:30;7.65;;;3.30;;
49858;SDS011;35756;52.346;13.622;2023-11-21T06:15:55;6.78;;;3.50;;
49858;SDS011;35756;52.346;13.622;2023-11-21T06:18:21;6.03;;;3.38;;
49858;SDS011;35756;52.346;13.622;2023-11-21T06:20:46;7.35;;;4.20;;
49858;SDS011;35756;52.346;13.622;2023-11-21T06:23:11;6.32;;;3.42;;
49858;SDS011;35756;52.346;13.622;2023-11-21T06:25:37;6.10;;;3.13;;
49858;SDS011;35756;52.346;13.622;2023-11-21T06:28:02;7.28;;;3.15;;
49858;SDS011;35756;52.346;13.622;2023-11-21T06:30:28;5.57;;;3.40;;
49858;SDS011;35756;52.346;13.622;2023-11-21T06:32:53;9.02;;;3.58;;
49858;SDS011;35756;52.346;13.622;2023-11-21T06:35:19;4.75;;;3.60;;
49858;SDS011;35756;52.346;13.622;2023-11-21T06:37:45;7.22;;;3.50;;
49858;SDS011;35756;52.346;13.622;2023-11-21T06:40:12;6.10;;;3.30;;
49858;SDS011;35756;52.346;13.622;2023-11-21T06:42:40;7.65;;;3.65;;
49858;SDS011;35756;52.346;13.622;2023-11-21T06:45:06;7.88;;;3.88;;
49858;SDS011;35756;52.346;13.622;2023-11-21T06:47:32;7.72;;;3.58;;
49858;SDS011;35756;52.346;13.622;2023-11-21T06:49:58;8.75;;;3.78;;
49858;SDS011;35756;52.346;13.622;2023-11-21T06:52:23;7.75;;;3.08;;
49858;SDS011;35756;52.346;13.622;2023-11-21T06:54:48;6.45;;;3.78;;
49858;SDS011;35756;52.346;13.622;2023-11-21T06:57:16;7.47;;;3.65;;
49858;SDS011;35756;52.346;13.622;2023-11-21T06:59:42;8.82;;;3.50;;
49858;SDS011;35756;52.346;13.622;2023-11-21T07:02:07;7.07;;;3.63;;
49858;SDS011;35756;52.346;13.622;2023-11-21T07:04:33;8.38;;;3.72;;
49858;SDS011;35756;52.346;13.622;2023-11-21T07:06:59;6.78;;;3.63;;
49858;SDS011;35756;52.346;13.622;2023-11-21T07:09:24;6.65;;;3.30;;
49858;SDS011;35756;52.346;13.622;2023-11-21T07:11:50;9.23;;;4.07;;
49858;SDS011;35756;52.346;13.622;2023-11-21T07:14:16;7.35;;;3.75;;
49858;SDS011;35756;52.346;13.622;2023-11-21T07:16:44;6.93;;;3.38;;
49858;SDS011;35756;52.346;13.622;2023-11-21T07:19:10;5.65;;;3.13;;
49858;SDS011;35756;52.346;13.622;2023-11-21T07:21:35;6.55;;;3.67;;
49858;SDS011;35756;52.346;13.622;2023-11-21T07:24:01;6.45;;;2.90;;
49858;SDS011;35756;52.346;13.622;2023-11-21T07:26:31;5.70;;;2.90;;
49858;SDS011;35756;52.346;13.622;2023-11-21T07:28:58;8.30;;;3.28;;
49858;SDS011;35756;52.346;13.622;2023-11-21T07:31:23;6.78;;;3.13;;
49858;SDS011;35756;52.346;13.622;2023-11-21T07:33:49;9.23;;;3.22;;
49858;SDS011;35756;52.346;13.622;2023-11-21T07:36:15;6.20;;;2.67;;
49858;SDS011;35756;52.346;13.622;2023-11-21T07:38:41;5.68;;;2.95;;
49858;SDS011;35756;52.346;13.622;2023-11-21T07:41:07;5.07;;;3.20;;
49858;SDS011;35756;52.346;13.622;2023-11-21T07:43:35;5.13;;;2.63;;
49858;SDS011;35756;52.346;13.622;2023-11-21T07:46:01;6.40;;;3.22;;
49858;SDS011;35756;52.346;13.622;2023-11-21T07:48:28;6.32;;;3.03;;
49858;SDS011;35756;52.346;13.622;2023-11-21T07:50:57;7.07;;;3.55;;
49858;SDS011;35756;52.346;13.622;2023-11-21T07:53:23;5.70;;;3.30;;
49858;SDS011;35756;52.346;13.622;2023-11-21T07:55:50;7.85;;;3.85;;
49858;SDS011;35756;52.346;13.622;2023-11-21T07:58:15;7.18;;;3.47;;
49858;SDS011;35756;52.346;13.622;2023-11-21T08:00:40;8.90;;;3.60;;
49858;SDS011;35756;52.346;13.622;2023-11-21T08:03:06;6.18;;;2.97;;
49858;SDS011;35756;52.346;13.622;2023-11-21T08:05:31;8.75;;;4.28;;
49858;SDS011;35756;52.346;13.622;2023-11-21T08:07:56;7.32;;;3.97;;
49858;SDS011;35756;52.346;13.622;2023-11-21T08:10:22;7.40;;;4.10;;
49858;SDS011;35756;52.346;13.622;2023-11-21T08:12:47;10.90;;;5.20;;
49858;SDS011;35756;52.346;13.622;2023-11-21T08:15:13;11.50;;;4.63;;
49858;SDS011;35756;52.346;13.622;2023-11-21T08:17:39;11.07;;;5.35;;
49858;SDS011;35756;52.346;13.622;2023-11-21T08:20:04;8.90;;;4.55;;
49858;SDS011;35756;52.346;13.622;2023-11-21T08:22:31;8.70;;;4.28;;
49858;SDS011;35756;52.346;13.622;2023-11-21T08:24:56;8.18;;;4.18;;
49858;SDS011;35756;52.346;13.622;2023-11-21T08:27:22;10.65;;;4.82;;
49858;SDS011;35756;52.346;13.622;2023-11-21T08:29:47;10.48;;;3.78;;
49858;SDS011;35756;52.346;13.622;2023-11-21T08:32:12;9.77;;;3.83;;
49858;SDS011;35756;52.346;13.622;2023-11-21T08:34:38;10.23;;;4.32;;
49858;SDS011;35756;52.346;13.622;2023-11-21T08:37:04;9.02;;;4.35;;
49858;SDS011;35756;52.346;13.622;2023-11-21T08:39:30;9.68;;;3.85;;
49858;SDS011;35756;52.346;13.622;2023-11-21T08:41:56;8.60;;;3.53;;
49858;SDS011;35756;52.346;13.622;2023-11-21T08:44:22;9.48;;;4.68;;
49858;SDS011;35756;52.346;13.622;2023-11-21T08:46:48;10.05;;;3.72;;
49858;SDS011;35756;52.346;13.622;2023-11-21T08:49:14;8.23;;;3.10;;
49858;SDS011;35756;52.346;13.622;2023-11-21T08:51:40;7.25;;;3.55;;
49858;SDS011;35756;52.346;13.622;2023-11-21T08:54:06;8.13;;;3.67;;
49858;SDS011;35756;52.346;13.622;2023-11-21T08:56:33;6.50;;;3.92;;
49858;SDS011;35756;52.346;13.622;2023-11-21T08:58:59;5.13;;;3.13;;
49858;SDS011;35756;52.346;13.622;2023-11-21T09:01:27;7.80;;;3.80;;
49858;SDS011;35756;52.346;13.622;2023-11-21T09:03:52;9.32;;;3.33;;
49858;SDS011;35756;52.346;13.622;2023-11-21T09:06:17;6.55;;;3.25;;
49858;SDS011;35756;52.346;13.622;2023-11-21T09:08:43;6.93;;;3.30;;
49858;SDS011;35756;52.346;13.622;2023-11-21T09:11:08;11.60;;;4.00;;
49858;SDS011;35756;52.346;13.622;2023-11-21T09:13:34;6.25;;;2.92;;
49858;SDS011;35756;52.346;13.622;2023-11-21T09:15:59;6.28;;;3.35;;
49858;SDS011;35756;52.346;13.622;2023-11-21T09:18:25;6.65;;;3.03;;
49858;SDS011;35756;52.346;13.622;2023-11-21T09:20:50;7.05;;;3.10;;
49858;SDS011;35756;52.346;13.622;2023-11-21T09:23:15;4.10;;;2.47;;
49858;SDS011;35756;52.346;13.622;2023-11-21T09:25:40;4.45;;;2.50;;
49858;SDS011;35756;52.346;13.622;2023-11-21T09:28:06;5.25;;;3.00;;
49858;SDS011;35756;52.346;13.622;2023-11-21T09:30:33;5.82;;;3.00;;
49858;SDS011;35756;52.346;13.622;2023-11-21T09:33:00;3.95;;;2.35;;
49858;SDS011;35756;52.346;13.622;2023-11-21T09:35:26;6.72;;;3.05;;
49858;SDS011;35756;52.346;13.622;2023-11-21T09:37:52;6.68;;;2.60;;
49858;SDS011;35756;52.346;13.622;2023-11-21T09:40:19;3.90;;;2.60;;
49858;SDS011;35756;52.346;13.622;2023-11-21T09:42:57;4.63;;;2.80;;
49858;SDS011;35756;52.346;13.622;2023-11-21T09:47:55;4.13;;;2.60;;
49858;SDS011;35756;52.346;13.622;2023-11-21T09:50:21;4.00;;;2.30;;
49858;SDS011;35756;52.346;13.622;2023-11-21T09:53:08;3.42;;;2.22;;
49858;SDS011;35756;52.346;13.622;2023-11-21T09:55:42;3.95;;;2.03;;
49858;SDS011;35756;52.346;13.622;2023-11-21T09:58:08;3.53;;;2.17;;
49858;SDS011;35756;52.346;13.622;2023-11-21T10:00:36;4.63;;;2.45;;
49858;SDS011;35756;52.346;13.622;2023-11-21T10:03:06;4.57;;;2.33;;
49858;SDS011;35756;52.346;13.622;2023-11-21T10:05:31;3.13;;;2.15;;
49858;SDS011;35756;52.346;13.622;2023-11-21T10:07:59;5.45;;;1.90;;
49858;SDS011;35756;52.346;13.622;2023-11-21T10:10:24;3.80;;;2.10;;
49858;SDS011;35756;52.346;13.622;2023-11-21T10:12:50;2.75;;;1.90;;
49858;SDS011;35756;52.346;13.622;2023-11-21T10:15:21;3.03;;;1.95;;
49858;SDS011;35756;52.346;13.622;2023-11-21T10:17:46;2.72;;;2.05;;
49858;SDS011;35756;52.346;13.622;2023-11-21T10:20:14;2.70;;;1.70;;
49858;SDS011;35756;52.346;13.622;2023-11-21T10:22:42;3.35;;;2.10;;
49858;SDS011;35756;52.346;13.622;2023-11-21T10:25:08;4.07;;;2.22;;
49858;SDS011;35756;52.346;13.622;2023-11-21T10:27:34;3.53;;;1.70;;
49858;SDS011;35756;52.346;13.622;2023-11-21T10:30:02;4.15;;;2.20;;
49858;SDS011;35756;52.346;13.622;2023-11-21T10:32:29;4.22;;;1.98;;
49858;SDS011;35756;52.346;13.622;2023-11-21T10:34:57;6.97;;;2.30;;
49858;SDS011;35756;52.346;13.622;2023-11-21T10:37:23;3.33;;;2.15;;
49858;SDS011;35756;52.346;13.622;2023-11-21T10:39:48;4.25;;;2.10;;
49858;SDS011;35756;52.346;13.622;2023-11-21T10:42:13;3.25;;;1.77;;
49858;SDS011;35756;52.346;13.622;2023-11-21T10:44:41;2.05;;;1.65;;
49858;SDS011;35756;52.346;13.622;2023-11-21T10:47:08;2.25;;;1.52;;
49858;SDS011;35756;52.346;13.622;2023-11-21T10:49:33;2.10;;;1.50;;
49858;SDS011;35756;52.346;13.622;2023-11-21T10:51:59;3.65;;;1.77;;
49858;SDS011;35756;52.346;13.622;2023-11-21T10:54:25;1.95;;;1.50;;
49858;SDS011;35756;52.346;13.622;2023-11-21T10:56:53;2.80;;;1.63;;
49858;SDS011;35756;52.346;13.622;2023-11-21T10:59:19;3.20;;;1.77;;
49858;SDS011;35756;52.346;13.622;2023-11-21T11:01:49;2.45;;;1.40;;
49858;SDS011;35756;52.346;13.622;2023-11-21T11:04:18;1.85;;;1.52;;
49858;SDS011;35756;52.346;13.622;2023-11-21T11:06:44;1.95;;;1.63;;
49858;SDS011;35756;52.346;13.622;2023-11-21T11:09:13;3.40;;;1.70;;
49858;SDS011;35756;52.346;13.622;2023-11-21T11:11:39;2.95;;;1.70;;
49858;SDS011;35756;52.346;13.622;2023-11-21T11:14:06;2.22;;;1.50;;
49858;SDS011;35756;52.346;13.622;2023-11-21T11:16:34;1.60;;;1.40;;
49858;SDS011;35756;52.346;13.622;2023-11-21T11:19:00;3.33;;;1.63;;
49858;SDS011;35756;52.346;13.622;2023-11-21T11:30:05;2.03;;;1.63;;
49858;SDS011;35756;52.346;13.622;2023-11-21T11:32:43;2.42;;;1.30;;
49858;SDS011;35756;52.346;13.622;2023-11-21T11:35:25;1.48;;;1.05;;
49858;SDS011;35756;52.346;13.622;2023-11-21T11:37:55;1.58;;;1.08;;
49858;SDS011;35756;52.346;13.622;2023-11-21T11:40:20;2.60;;;1.50;;
49858;SDS011;35756;52.346;13.622;2023-11-21T11:42:56;4.63;;;3.17;;
49858;SDS011;35756;52.346;13.622;2023-11-21T11:45:23;6.35;;;3.50;;
49858;SDS011;35756;52.346;13.622;2023-11-21T11:47:56;6.70;;;4.00;;
49858;SDS011;35756;52.346;13.622;2023-11-21T11:50:21;5.47;;;2.90;;
49858;SDS011;35756;52.346;13.622;2023-11-21T11:52:47;1.73;;;1.52;;
49858;SDS011;35756;52.346;13.622;2023-11-21T11:55:17;1.85;;;1.20;;
49858;SDS011;35756;52.346;13.622;2023-11-21T11:57:44;3.80;;;1.98;;
49858;SDS011;35756;52.346;13.622;2023-11-21T12:00:15;8.07;;;5.07;;
49858;SDS011;35756;52.346;13.622;2023-11-21T12:02:47;2.20;;;1.80;;
49858;SDS011;35756;52.346;13.622;2023-11-21T12:05:14;1.33;;;1.20;;
49858;SDS011;35756;52.346;13.622;2023-11-21T12:07:51;1.92;;;1.20;;
49858;SDS011;35756;52.346;13.622;2023-11-21T12:10:21;1.50;;;1.17;;
49858;SDS011;35756;52.346;13.622;2023-11-21T12:12:49;3.70;;;1.85;;
49858;SDS011;35756;52.346;13.622;2023-11-21T12:15:19;2.88;;;1.85;;
49858;SDS011;35756;52.346;13.622;2023-11-21T12:17:46;1.35;;;1.25;;
49858;SDS011;35756;52.346;13.622;2023-11-21T12:20:12;2.08;;;1.60;;
49858;SDS011;35756;52.346;13.622;2023-11-21T12:22:49;3.30;;;2.40;;
49858;SDS011;35756;52.346;13.622;2023-11-21T12:27:45;3.47;;;2.33;;
49858;SDS011;35756;52.346;13.622;2023-11-21T12:30:12;3.22;;;1.77;;
49858;SDS011;35756;52.346;13.622;2023-11-21T12:32:39;2.20;;;1.65;;
49858;SDS011;35756;52.346;13.622;2023-11-21T12:35:06;3.78;;;2.30;;
49858;SDS011;35756;52.346;13.622;2023-11-21T12:37:33;1.95;;;1.52;;
49858;SDS011;35756;52.346;13.622;2023-11-21T12:39:58;2.42;;;1.60;;
49858;SDS011;35756;52.346;13.622;2023-11-21T12:42:24;1.55;;;1.40;;
49858;SDS011;35756;52.346;13.622;2023-11-21T12:45:07;3.38;;;1.58;;
49858;SDS011;35756;52.346;13.622;2023-11-21T12:47:43;2.28;;;1.60;;
49858;SDS011;35756;52.346;13.622;2023-11-21T12:50:10;2.10;;;1.40;;
49858;SDS011;35756;52.346;13.622;2023-11-21T12:52:42;1.80;;;1.55;;
49858;SDS011;35756;52.346;13.622;2023-11-21T12:55:18;1.20;;;1.08;;
49858;SDS011;35756;52.346;13.622;2023-11-21T12:57:47;2.50;;;1.38;;
49858;SDS011;35756;52.346;13.622;2023-11-21T13:00:16;1.83;;;1.40;;
49858;SDS011;35756;52.346;13.622;2023-11-21T13:02:52;2.53;;;1.55;;
49858;SDS011;35756;52.346;13.622;2023-11-21T13:07:49;2.90;;;1.77;;
49858;SDS011;35756;52.346;13.622;2023-11-21T13:10:19;2.25;;;1.63;;
49858;SDS011;35756;52.346;13.622;2023-11-21T13:12:44;1.77;;;1.35;;
49858;SDS011;35756;52.346;13.622;2023-11-21T13:15:13;4.18;;;1.92;;
49858;SDS011;35756;52.346;13.622;2023-11-21T13:17:39;3.28;;;2.08;;
49858;SDS011;35756;52.346;13.622;2023-11-21T13:20:05;2.75;;;1.92;;
49858;SDS011;35756;52.346;13.622;2023-11-21T13:22:33;3.38;;;2.35;;
49858;SDS011;35756;52.346;13.622;2023-11-21T13:25:00;4.25;;;2.38;;
49858;SDS011;35756;52.346;13.622;2023-11-21T13:27:32;3.83;;;2.60;;
49858;SDS011;35756;52.346;13.622;2023-11-21T13:29:58;4.70;;;2.80;;
49858;SDS011;35756;52.346;13.622;2023-11-21T13:32:24;3.88;;;2.75;;
49858;SDS011;35756;52.346;13.622;2023-11-21T13:34:50;4.93;;;2.50;;
49858;SDS011;35756;52.346;13.622;2023-11-21T13:37:19;5.95;;;3.50;;
49858;SDS011;35756;52.346;13.622;2023-11-21T13:39:44;5.03;;;3.25;;
49858;SDS011;35756;52.346;13.622;2023-11-21T13:42:14;4.50;;;2.97;;
49858;SDS011;35756;52.346;13.622;2023-11-21T13:44:41;3.70;;;2.55;;
49858;SDS011;35756;52.346;13.622;2023-11-21T13:47:09;5.13;;;2.55;;
49858;SDS011;35756;52.346;13.622;2023-11-21T13:49:35;4.47;;;2.65;;
49858;SDS011;35756;52.346;13.622;2023-11-21T13:52:05;4.38;;;2.67;;
49858;SDS011;35756;52.346;13.622;2023-11-21T13:54:32;4.55;;;2.63;;
49858;SDS011;35756;52.346;13.622;2023-11-21T13:56:57;4.60;;;2.78;;
49858;SDS011;35756;52.346;13.622;2023-11-21T13:59:24;6.03;;;2.85;;
49858;SDS011;35756;52.346;13.622;2023-11-21T14:01:55;4.60;;;2.63;;
49858;SDS011;35756;52.346;13.622;2023-11-21T14:04:22;4.35;;;2.67;;
49858;SDS011;35756;52.346;13.622;2023-11-21T14:06:57;5.32;;;2.67;;
49858;SDS011;35756;52.346;13.622;2023-11-21T14:09:25;5.28;;;2.90;;
49858;SDS011;35756;52.346;13.622;2023-11-21T14:11:57;3.88;;;2.35;;
49858;SDS011;35756;52.346;13.622;2023-11-21T14:14:24;5.63;;;2.70;;
49858;SDS011;35756;52.346;13.622;2023-11-21T14:16:51;5.30;;;2.83;;
49858;SDS011;35756;52.346;13.622;2023-11-21T14:19:16;4.03;;;2.42;;
49858;SDS011;35756;52.346;13.622;2023-11-21T14:21:42;4.20;;;2.72;;
49858;SDS011;35756;52.346;13.622;2023-11-21T14:24:08;3.70;;;2.33;;
49858;SDS011;35756;52.346;13.622;2023-11-21T14:26:37;18.23;;;5.93;;
49858;SDS011;35756;52.346;13.622;2023-11-21T14:29:03;6.55;;;3.58;;
49858;SDS011;35756;52.346;13.622;2023-11-21T14:31:28;8.57;;;3.85;;
49858;SDS011;35756;52.346;13.622;2023-11-21T14:33:55;5.82;;;3.80;;
49858;SDS011;35756;52.346;13.622;2023-11-21T14:36:20;6.05;;;3.40;;
49858;SDS011;35756;52.346;13.622;2023-11-21T14:38:45;7.07;;;4.13;;
49858;SDS011;35756;52.346;13.622;2023-11-21T14:41:11;6.97;;;3.63;;
49858;SDS011;35756;52.346;13.622;2023-11-21T14:43:36;5.47;;;3.25;;